Time;durP1;ratioP1;P1;durP2;ratioP2;P2;SDS_P1;SDS_P2;PMS_P1;PMS_P2;Temp;Humidity;BMP_temperature;BMP_pressure;BME280_temperature;BME280_humidity;BME280_pressure;Samples;Min_cycle;Max_cycle;Signal;HPM_P1;HPM_P2
2023/07/21 00:01:43;;;;;;;0.50;0.50;;;;;;;28.07;62.05;98966.78;5049111;27;20460;-64
2023/07/21 00:04:10;;;;;;;0.40;0.40;;;;;;;28.05;61.71;98957.34;5047541;27;20212;-63
2023/07/21 00:06:38;;;;;;;0.67;0.67;;;;;;;27.95;61.65;98968.06;5048662;27;20197;-63
2023/07/21 00:09:06;;;;;;;0.50;0.50;;;;;;;27.94;61.77;98966.44;5048185;27;20617;-63
2023/07/21 00:11:33;;;;;;;2.93;0.40;;;;;;;27.94;62.41;98965.63;5048366;27;20208;-63
2023/07/21 00:14:00;;;;;;;0.43;0.43;;;;;;;27.91;62.56;98961.53;5048539;27;20193;-63
2023/07/21 00:16:29;;;;;;;0.80;0.80;;;;;;;27.83;61.93;98948.34;5048486;27;20292;-64
2023/07/21 00:18:56;;;;;;;0.50;0.50;;;;;;;27.41;62.90;98905.53;5048242;27;20206;-64
2023/07/21 00:21:24;;;;;;;0.30;0.30;;;;;;;27.69;62.69;98956.91;5048490;27;20209;-63
2023/07/21 00:23:53;;;;;;;0.50;0.50;;;;;;;27.66;62.79;98951.16;5048540;27;20664;-63
2023/07/21 00:26:19;;;;;;;3.43;0.70;;;;;;;27.54;63.40;98953.28;5048390;27;20197;-63
2023/07/21 00:28:46;;;;;;;0.60;0.60;;;;;;;27.51;63.59;98953.63;5047757;27;20200;-64
2023/07/21 00:31:13;;;;;;;1.27;0.67;;;;;;;27.36;63.70;98928.91;5048306;27;20200;-63
2023/07/21 00:33:40;;;;;;;0.77;0.77;;;;;;;27.48;63.78;98962.69;5048338;27;20651;-63
2023/07/21 00:36:08;;;;;;;0.50;0.50;;;;;;;27.44;63.22;98952.63;5048288;27;20201;-63
2023/07/21 00:38:35;;;;;;;1.13;0.80;;;;;;;27.25;64.67;98960.81;5047830;27;20311;-63
2023/07/21 00:41:03;;;;;;;0.43;0.43;;;;;;;26.98;65.53;98944.31;5048523;27;20308;-63
2023/07/21 00:43:31;;;;;;;0.80;0.80;;;;;;;27.03;65.97;98955.19;5048231;27;20232;-63
2023/07/21 00:45:58;;;;;;;0.47;0.47;;;;;;;26.99;66.00;98947.75;5048349;27;20262;-63
2023/07/21 00:48:25;;;;;;;0.50;0.50;;;;;;;26.97;66.38;98950.56;5047723;27;20197;-63
2023/07/21 00:50:53;;;;;;;0.50;0.50;;;;;;;27.02;67.17;98953.53;5048272;27;20269;-63
2023/07/21 00:53:21;;;;;;;0.60;0.60;;;;;;;27.09;67.30;98949.28;5047882;27;20744;-63
2023/07/21 00:55:50;;;;;;;0.60;0.60;;;;;;;26.95;68.52;98949.88;5048073;27;20200;-63
2023/07/21 00:58:22;;;;;;;0.60;0.60;;;;;;;26.87;69.52;98955.16;5047710;27;20335;-63
2023/07/21 01:00:48;;;;;;;0.50;0.50;;;;;;;26.82;69.87;98946.91;5048227;27;20556;-63
2023/07/21 01:03:18;;;;;;;0.50;0.50;;;;;;;26.71;69.73;98939.28;5048027;27;20207;-63
2023/07/21 01:05:50;;;;;;;0.53;0.53;;;;;;;26.63;70.61;98926.09;5047936;27;20196;-63
2023/07/21 01:08:19;;;;;;;0.43;0.43;;;;;;;26.67;70.96;98943.22;5047979;27;20196;-63
2023/07/21 01:10:48;;;;;;;2.57;0.50;;;;;;;26.60;70.84;98936.94;5048627;27;20207;-63
2023/07/21 01:13:16;;;;;;;0.43;0.43;;;;;;;26.68;70.69;98949.28;5047869;27;20193;-63
2023/07/21 01:15:49;;;;;;;0.50;0.50;;;;;;;26.65;71.34;98947.81;5047605;27;20203;-63
2023/07/21 01:18:19;;;;;;;0.93;0.43;;;;;;;26.44;71.73;98950.00;5047742;27;20239;-63
2023/07/21 01:20:47;;;;;;;0.87;0.40;;;;;;;26.16;72.61;98932.75;5047126;27;20212;-63
2023/07/21 01:23:26;;;;;;;3.87;0.50;;;;;;;26.20;72.87;98937.59;5047732;27;20234;-63
2023/07/21 01:25:57;;;;;;;0.60;0.60;;;;;;;26.33;72.32;98953.75;5045237;27;20205;-63
2023/07/21 01:28:26;;;;;;;0.60;0.60;;;;;;;26.32;72.82;98951.28;5047877;27;20576;-63
2023/07/21 01:30:56;;;;;;;1.00;0.93;;;;;;;26.38;72.31;98953.28;5047605;27;20261;-63
2023/07/21 01:33:23;;;;;;;0.40;0.40;;;;;;;26.36;72.29;98955.25;5047855;27;20711;-63
2023/07/21 01:35:51;;;;;;;0.70;0.47;;;;;;;26.35;72.78;98953.59;5046871;27;20207;-63
2023/07/21 01:38:19;;;;;;;0.60;0.60;;;;;;;26.36;72.37;98956.06;5047323;27;20217;-63
2023/07/21 01:40:47;;;;;;;0.50;0.50;;;;;;;26.42;72.24;98959.88;5046816;27;20205;-63
2023/07/21 01:43:16;;;;;;;0.40;0.40;;;;;;;26.32;72.62;98944.22;5046889;27;20208;-63
2023/07/21 01:45:43;;;;;;;1.13;0.70;;;;;;;26.40;72.20;98953.91;5047478;27;20200;-63
2023/07/21 01:48:10;;;;;;;0.50;0.50;;;;;;;26.40;72.46;98961.81;5047573;27;20707;-63
2023/07/21 01:50:39;;;;;;;0.50;0.50;;;;;;;26.31;72.94;98976.72;5064931;27;20196;-63
2023/07/21 01:53:09;;;;;;;0.50;0.50;;;;;;;26.19;74.14;98974.53;5045872;27;20614;-63
2023/07/21 01:55:41;;;;;;;0.50;0.50;;;;;;;26.16;74.13;98974.78;5047092;27;20193;-63
2023/07/21 01:58:09;;;;;;;1.77;0.60;;;;;;;26.20;73.44;98981.44;5046966;27;20212;-63
2023/07/21 02:00:43;;;;;;;0.70;0.70;;;;;;;26.25;73.13;98982.59;5046528;27;20247;-63
2023/07/21 02:03:11;;;;;;;0.50;0.50;;;;;;;26.25;73.05;98968.63;5047069;27;20205;-63
2023/07/21 02:05:38;;;;;;;0.83;0.80;;;;;;;26.30;73.40;98976.91;5046580;27;20197;-63
2023/07/21 02:08:05;;;;;;;0.40;0.40;;;;;;;26.30;73.60;98971.63;5100159;27;20194;-63
2023/07/21 02:10:32;;;;;;;0.57;0.57;;;;;;;26.32;73.39;98980.19;5075630;27;20197;-63
2023/07/21 02:12:58;;;;;;;0.40;0.40;;;;;;;26.31;73.42;98983.78;5047278;27;20227;-63
2023/07/21 02:15:25;;;;;;;0.77;0.77;;;;;;;26.33;73.87;98981.84;5047063;27;20254;-63
2023/07/21 02:17:53;;;;;;;0.60;0.60;;;;;;;26.32;73.43;98983.63;5046859;27;20231;-63
2023/07/21 02:20:20;;;;;;;0.70;0.70;;;;;;;26.29;73.51;98983.94;5046603;27;20691;-63
2023/07/21 02:22:47;;;;;;;0.40;0.40;;;;;;;26.29;73.96;98993.63;5048832;27;20253;-63
2023/07/21 02:25:14;;;;;;;0.63;0.60;;;;;;;26.21;74.36;98997.03;5050454;27;20200;-63
2023/07/21 02:27:41;;;;;;;0.47;0.47;;;;;;;26.17;73.96;98992.25;5050677;27;20620;-63
2023/07/21 02:30:09;;;;;;;0.93;0.93;;;;;;;26.17;73.56;98997.50;5050030;27;20245;-63
2023/07/21 02:32:36;;;;;;;0.70;0.70;;;;;;;26.17;74.00;98992.25;5050170;27;20228;-63
2023/07/21 02:35:05;;;;;;;0.47;0.47;;;;;;;26.14;73.23;98992.53;5050212;27;20223;-63
2023/07/21 02:37:32;;;;;;;0.50;0.50;;;;;;;26.11;73.16;99002.34;5049942;27;20269;-63
2023/07/21 02:39:59;;;;;;;0.50;0.50;;;;;;;26.07;73.77;99003.63;5063391;27;20212;-63
2023/07/21 02:42:25;;;;;;;0.60;0.60;;;;;;;26.08;73.60;99002.66;5155207;27;20197;-63
2023/07/21 02:44:52;;;;;;;0.83;0.83;;;;;;;26.07;73.79;99014.13;5155000;27;20672;-63
2023/07/21 02:47:19;;;;;;;5.17;0.60;;;;;;;26.07;74.43;99013.34;5154882;27;20281;-63
2023/07/21 02:49:46;;;;;;;0.70;0.70;;;;;;;26.03;74.19;99010.19;5117473;27;20621;-63
2023/07/21 02:52:14;;;;;;;0.70;0.70;;;;;;;25.96;74.53;99013.56;5049984;27;20196;-63
2023/07/21 02:54:41;;;;;;;1.33;0.53;;;;;;;25.94;74.17;99019.00;5049833;27;20201;-63
2023/07/21 02:57:08;;;;;;;0.53;0.53;;;;;;;25.94;74.47;99023.41;5049787;27;20197;-63
2023/07/21 02:59:36;;;;;;;0.90;0.90;;;;;;;25.90;74.33;99028.16;5049469;27;20261;-63
2023/07/21 03:02:03;;;;;;;0.47;0.47;;;;;;;25.83;73.95;99032.34;5049431;27;20200;-63
2023/07/21 03:04:32;;;;;;;0.50;0.50;;;;;;;25.78;73.57;99034.63;5096990;27;20197;-63
2023/07/21 03:06:59;;;;;;;0.70;0.70;;;;;;;25.73;74.14;99030.78;5154684;27;20201;-63
2023/07/21 03:09:27;;;;;;;0.40;0.40;;;;;;;25.71;74.18;99036.19;5133221;27;20613;-63
2023/07/21 03:11:56;;;;;;;0.57;0.57;;;;;;;25.68;74.09;99033.03;5049654;27;20200;-63
2023/07/21 03:14:23;;;;;;;1.73;0.90;;;;;;;25.68;73.99;99028.63;5049728;27;20200;-63
2023/07/21 03:16:49;;;;;;;0.63;0.63;;;;;;;25.64;73.80;99029.91;5049461;27;20236;-63
2023/07/21 03:19:16;;;;;;;0.70;0.70;;;;;;;25.62;73.98;99031.03;5047209;27;20310;-63
2023/07/21 03:21:43;;;;;;;0.73;0.73;;;;;;;25.58;74.29;99035.75;5048127;27;20197;-63
2023/07/21 03:24:10;;;;;;;0.60;0.60;;;;;;;25.52;74.50;99036.34;5049287;27;20291;-63
2023/07/21 03:26:38;;;;;;;0.80;0.80;;;;;;;25.52;73.62;99038.97;5049398;27;20205;-63
2023/07/21 03:29:05;;;;;;;0.60;0.60;;;;;;;25.42;73.80;99022.44;5048900;27;20197;-63
2023/07/21 03:31:32;;;;;;;0.50;0.50;;;;;;;25.51;73.75;99038.13;5049917;27;20289;-63
2023/07/21 03:33:59;;;;;;;0.43;0.43;;;;;;;25.53;73.17;99040.59;5049082;27;20193;-63
2023/07/21 03:36:26;;;;;;;1.80;0.60;;;;;;;25.55;73.61;99046.53;5049399;27;20236;-63
2023/07/21 03:38:53;;;;;;;0.50;0.50;;;;;;;25.56;73.40;99053.44;5080706;27;20281;-63
2023/07/21 03:41:20;;;;;;;0.50;0.50;;;;;;;25.59;73.34;99055.75;5059179;27;20204;-63
2023/07/21 03:43:49;;;;;;;0.60;0.60;;;;;;;25.54;72.94;99037.00;5153927;27;20229;-63
2023/07/21 03:46:16;;;;;;;0.63;0.63;;;;;;;25.71;73.72;99056.38;5153818;27;20193;-63
2023/07/21 03:48:44;;;;;;;0.40;0.40;;;;;;;25.76;72.81;99052.31;5154120;27;20197;-63
2023/07/21 03:51:11;;;;;;;0.67;0.67;;;;;;;25.82;73.21;99058.75;5061576;27;20246;-63
2023/07/21 03:53:38;;;;;;;0.60;0.60;;;;;;;25.89;72.74;99068.50;5048829;27;20197;-63
2023/07/21 03:56:05;;;;;;;4.63;0.57;;;;;;;25.92;73.25;99051.63;5090385;27;20216;-63
2023/07/21 03:58:32;;;;;;;0.43;0.43;;;;;;;26.07;73.47;99060.63;5063209;27;20217;-63
2023/07/21 04:01:00;;;;;;;0.60;0.60;;;;;;;26.14;73.48;99060.84;5066568;27;20212;-63
2023/07/21 04:03:27;;;;;;;1.13;0.63;;;;;;;26.19;72.28;99069.13;5048396;27;20201;-63
2023/07/21 04:05:55;;;;;;;0.70;0.70;;;;;;;26.25;71.76;99063.25;5062477;27;20197;-63
2023/07/21 04:08:21;;;;;;;0.60;0.60;;;;;;;26.39;71.93;99062.69;5048268;27;20197;-63
2023/07/21 04:10:48;;;;;;;0.50;0.50;;;;;;;26.47;71.62;99063.56;5127583;27;20687;-63
2023/07/21 04:13:15;;;;;;;0.90;0.90;;;;;;;26.56;71.62;99067.06;5096906;27;20205;-63
2023/07/21 04:15:42;;;;;;;0.60;0.60;;;;;;;26.56;70.12;99064.41;5065836;27;20227;-63
2023/07/21 04:18:10;;;;;;;0.70;0.70;;;;;;;26.63;70.12;99062.81;5048207;27;20738;-63
2023/07/21 04:20:37;;;;;;;0.70;0.70;;;;;;;26.81;70.24;99076.78;5047844;27;20220;-63
2023/07/21 04:23:03;;;;;;;0.70;0.70;;;;;;;26.90;69.95;99072.38;5048092;27;20293;-63
2023/07/21 04:25:32;;;;;;;0.60;0.60;;;;;;;27.06;70.96;99089.06;5046605;27;20201;-63
2023/07/21 04:27:58;;;;;;;0.70;0.70;;;;;;;27.22;69.56;99090.09;5048445;27;20200;-63
2023/07/21 04:30:26;;;;;;;1.13;0.60;;;;;;;27.32;68.15;99085.53;5048594;27;20207;-63
2023/07/21 04:32:53;;;;;;;0.60;0.60;;;;;;;27.53;68.35;99099.94;5047787;27;20273;-63
2023/07/21 04:35:21;;;;;;;0.80;0.80;;;;;;;27.63;67.18;99094.53;5060873;27;20343;-64
2023/07/21 04:37:48;;;;;;;0.47;0.47;;;;;;;27.72;66.32;99085.66;5067393;27;20197;-63
2023/07/21 04:40:14;;;;;;;0.73;0.73;;;;;;;27.90;66.52;99102.16;5074400;27;20257;-63
2023/07/21 04:42:41;;;;;;;0.73;0.73;;;;;;;28.07;65.03;99101.22;5047032;27;20201;-63
2023/07/21 04:45:11;;;;;;;1.63;0.70;;;;;;;28.27;65.18;99092.97;5046108;27;20189;-63
2023/07/21 04:47:39;;;;;;;0.70;0.70;;;;;;;28.49;65.02;99094.91;5047412;27;20591;-64
2023/07/21 04:50:07;;;;;;;1.77;0.80;;;;;;;28.63;63.77;99094.22;5045768;27;20228;-63
2023/07/21 04:52:36;;;;;;;0.83;0.73;;;;;;;28.79;62.53;99101.31;5047206;27;20204;-63
2023/07/21 04:55:04;;;;;;;0.90;0.90;;;;;;;28.92;61.75;99102.41;5047829;27;20712;-62
2023/07/21 04:57:31;;;;;;;1.80;0.60;;;;;;;29.04;60.16;99098.44;5057925;27;20255;-63
2023/07/21 04:59:59;;;;;;;0.60;0.60;;;;;;;29.14;60.79;99109.56;5047456;27;20674;-64
2023/07/21 05:02:28;;;;;;;0.80;0.80;;;;;;;29.34;60.80;99099.47;5048098;27;20201;-65
2023/07/21 05:04:54;;;;;;;0.63;0.63;;;;;;;29.54;59.83;99111.25;5102632;27;20262;-59
2023/07/21 05:07:21;;;;;;;0.50;0.40;;;;;;;29.77;60.17;99105.16;5092197;27;20206;-60
2023/07/21 05:09:49;;;;;;;0.82;0.82;;;;;;;29.98;59.71;99106.22;5073575;27;20656;-61
2023/07/21 05:12:16;;;;;;;0.60;0.60;;;;;;;30.13;57.50;99117.66;5130383;27;20197;-61
2023/07/21 05:14:44;;;;;;;0.40;0.40;;;;;;;30.26;58.52;99118.88;5094310;27;20205;-60
2023/07/21 05:17:11;;;;;;;0.65;0.65;;;;;;;30.50;59.01;99113.41;5083454;27;20244;-59
2023/07/21 05:19:38;;;;;;;0.60;0.60;;;;;;;30.71;56.85;99118.81;5082962;27;20715;-60
2023/07/21 05:22:06;;;;;;;0.55;0.55;;;;;;;30.87;55.68;99121.28;5104585;27;20269;-62
2023/07/21 05:24:32;;;;;;;0.40;0.40;;;;;;;30.96;55.52;99108.78;5060230;27;20645;-65
2023/07/21 05:27:00;;;;;;;0.63;0.63;;;;;;;31.16;55.61;99121.28;5101608;27;20197;-65
2023/07/21 05:29:27;;;;;;;0.70;0.70;;;;;;;31.24;55.00;99123.84;5129211;27;20212;-63
2023/07/21 05:31:54;;;;;;;0.82;0.82;;;;;;;31.37;54.51;99132.97;5090637;27;20201;-64
2023/07/21 05:34:22;;;;;;;0.60;0.60;;;;;;;31.32;53.64;99130.03;5118022;27;20205;-65
2023/07/21 05:36:48;;;;;;;0.80;0.80;;;;;;;31.40;53.30;99132.59;5079994;27;20227;-65
2023/07/21 05:39:15;;;;;;;1.83;0.57;;;;;;;31.49;54.25;99139.44;5078461;27;20292;-67
2023/07/21 05:41:42;;;;;;;0.60;0.60;;;;;;;31.62;54.28;99147.56;5091562;27;20670;-65
2023/07/21 05:44:12;;;;;;;0.68;0.68;;;;;;;31.73;53.47;99155.00;5114761;27;20205;-65
2023/07/21 05:46:39;;;;;;;1.42;0.55;;;;;;;31.78;51.94;99146.50;5076227;27;20208;-64
2023/07/21 05:49:07;;;;;;;0.75;0.60;;;;;;;31.96;51.75;99144.25;5055226;27;20196;-65
2023/07/21 05:51:34;;;;;;;5.15;0.60;;;;;;;32.14;52.10;99142.84;5045299;27;20577;-65
2023/07/21 05:54:01;;;;;;;0.70;0.70;;;;;;;32.45;51.31;99149.63;5045196;27;20196;-64
2023/07/21 05:56:27;;;;;;;0.77;0.77;;;;;;;32.67;51.16;99149.41;5045728;27;20713;-65
2023/07/21 05:58:54;;;;;;;0.80;0.50;;;;;;;32.81;51.10;99137.06;5047249;27;20273;-65
2023/07/21 06:01:24;;;;;;;0.43;0.43;;;;;;;32.97;50.12;99138.59;5052215;27;20747;-65
2023/07/21 06:03:51;;;;;;;0.90;0.80;;;;;;;33.06;48.34;99137.41;5077504;27;20626;-65
2023/07/21 06:06:17;;;;;;;0.57;0.57;;;;;;;33.30;48.33;99149.41;5062896;27;20204;-67
2023/07/21 06:08:44;;;;;;;0.70;0.70;;;;;;;33.39;47.29;99142.91;5049243;27;20695;-66
2023/07/21 06:11:12;;;;;;;0.50;0.50;;;;;;;33.56;49.05;99145.03;5054542;27;20277;-66
2023/07/21 06:13:39;;;;;;;0.60;0.60;;;;;;;33.66;47.65;99142.03;5049143;27;20204;-63
2023/07/21 06:16:05;;;;;;;0.60;0.60;;;;;;;33.88;47.44;99140.84;5061411;27;20733;-63
2023/07/21 06:18:35;;;;;;;0.60;0.60;;;;;;;34.00;47.68;99141.88;5057416;27;20255;-60
2023/07/21 06:21:03;;;;;;;0.88;0.88;;;;;;;34.07;45.54;99144.56;5067051;27;20625;-61
2023/07/21 06:23:30;;;;;;;0.50;0.50;;;;;;;33.95;46.61;99135.53;5088013;27;20197;-62
2023/07/21 06:25:57;;;;;;;0.50;0.50;;;;;;;33.95;48.40;99131.03;5079470;27;20201;-64
2023/07/21 06:28:24;;;;;;;0.70;0.70;;;;;;;33.80;46.25;99137.56;5057155;27;20205;-69
2023/07/21 06:30:50;;;;;;;1.75;0.70;;;;;;;33.90;48.80;99136.13;5087279;27;20197;-65
2023/07/21 06:33:17;;;;;;;0.60;0.60;;;;;;;33.77;47.16;99134.28;5047916;27;20652;-65
2023/07/21 06:35:45;;;;;;;0.70;0.70;;;;;;;33.98;49.04;99135.97;5048659;27;20197;-64
2023/07/21 06:38:12;;;;;;;2.25;0.90;;;;;;;34.28;47.39;99137.22;5049955;27;20204;-65
2023/07/21 06:40:39;;;;;;;0.77;0.77;;;;;;;34.44;44.67;99137.84;5046644;27;20220;-65
2023/07/21 06:43:06;;;;;;;1.63;0.55;;;;;;;34.57;44.33;99132.53;5042851;27;20204;-65
2023/07/21 06:45:33;;;;;;;0.55;0.55;;;;;;;34.55;42.57;99131.91;5044869;27;20197;-66
2023/07/21 06:48:00;;;;;;;0.80;0.70;;;;;;;34.52;42.53;99140.31;5074319;27;20205;-65
2023/07/21 06:50:27;;;;;;;0.43;0.40;;;;;;;34.78;43.92;99134.97;5048175;27;20691;-65
2023/07/21 06:52:55;;;;;;;0.88;0.70;;;;;;;34.89;42.92;99137.00;5046268;27;20213;-65
2023/07/21 06:55:22;;;;;;;0.60;0.60;;;;;;;35.06;43.71;99137.38;5091742;27;20331;-65
2023/07/21 06:57:49;;;;;;;0.77;0.77;;;;;;;35.17;40.39;99134.91;5048265;27;20287;-65
2023/07/21 07:00:16;;;;;;;0.55;0.55;;;;;;;35.27;41.80;99129.94;5047793;27;20235;-64
2023/07/21 07:02:48;;;;;;;0.77;0.77;;;;;;;35.59;41.76;99135.38;5046683;27;20237;-65
2023/07/21 07:05:16;;;;;;;0.80;0.80;;;;;;;35.95;40.73;99137.41;5047996;27;20196;-65
2023/07/21 07:07:43;;;;;;;0.45;0.45;;;;;;;36.24;39.84;99137.66;5047153;27;20211;-65
2023/07/21 07:10:11;;;;;;;0.55;0.55;;;;;;;36.43;39.21;99124.34;5049997;27;20577;-65
2023/07/21 07:12:39;;;;;;;0.60;0.60;;;;;;;36.61;40.55;99140.44;5048577;27;20291;-65
2023/07/21 07:15:09;;;;;;;0.50;0.50;;;;;;;36.72;39.46;99131.69;5048193;27;20201;-65
2023/07/21 07:17:36;;;;;;;0.50;0.50;;;;;;;37.02;39.17;99140.66;5049034;27;20228;-65
2023/07/21 07:20:04;;;;;;;0.70;0.70;;;;;;;37.32;38.20;99141.53;5047936;27;20601;-70
2023/07/21 07:22:31;;;;;;;0.50;0.50;;;;;;;37.49;36.31;99138.25;5137170;27;20254;-69
2023/07/21 07:24:58;;;;;;;0.75;0.75;;;;;;;37.58;36.60;99137.72;5094161;27;20231;-68
2023/07/21 07:27:26;;;;;;;1.00;1.00;;;;;;;37.60;35.84;99135.66;5058272;27;21672;-66
2023/07/21 07:29:52;;;;;;;0.75;0.75;;;;;;;37.63;37.43;99137.06;5046252;27;20193;-67
2023/07/21 07:32:19;;;;;;;1.23;0.60;;;;;;;37.70;36.97;99129.75;5046871;27;20209;-65
2023/07/21 07:34:47;;;;;;;0.60;0.60;;;;;;;37.61;37.39;99133.81;5047929;27;20204;-67
2023/07/21 07:37:15;;;;;;;0.73;0.73;;;;;;;37.42;37.76;99137.53;5112564;27;20208;-67
2023/07/21 07:39:42;;;;;;;0.80;0.80;;;;;;;37.25;38.19;99140.81;5047340;27;20217;-67
2023/07/21 07:42:09;;;;;;;0.85;0.85;;;;;;;36.78;38.26;99144.16;5085610;27;20205;-67
2023/07/21 07:44:37;;;;;;;0.60;0.60;;;;;;;36.67;41.30;99142.25;5052666;27;20205;-67
2023/07/21 07:47:05;;;;;;;0.47;0.47;;;;;;;36.24;37.82;99148.31;5102513;27;20634;-67
2023/07/21 07:49:32;;;;;;;0.50;0.50;;;;;;;36.37;38.19;99143.91;5067178;27;20206;-67
2023/07/21 07:51:58;;;;;;;0.50;0.50;;;;;;;36.56;38.71;99145.63;5075472;27;20272;-67
2023/07/21 07:54:25;;;;;;;0.60;0.60;;;;;;;36.75;36.62;99142.75;5089719;27;20201;-67
2023/07/21 07:56:52;;;;;;;0.70;0.70;;;;;;;36.78;36.84;99136.97;5048155;27;20196;-67
2023/07/21 07:59:19;;;;;;;2.20;0.50;;;;;;;36.90;37.29;99126.34;5094607;27;20223;-67
2023/07/21 08:01:47;;;;;;;0.52;0.52;;;;;;;37.17;35.25;99146.44;5048923;27;20197;-68
2023/07/21 08:04:14;;;;;;;0.40;0.40;;;;;;;37.24;37.11;99149.03;5046679;27;20212;-68
2023/07/21 08:06:41;;;;;;;0.60;0.60;;;;;;;37.02;37.21;99147.88;5048531;27;20200;-67
2023/07/21 08:09:09;;;;;;;0.52;0.52;;;;;;;37.16;36.59;99142.13;5048311;27;20229;-67
2023/07/21 08:11:37;;;;;;;0.50;0.50;;;;;;;37.31;36.96;99139.09;5091442;27;20201;-67
2023/07/21 08:14:05;;;;;;;0.73;0.73;;;;;;;37.48;36.15;99155.38;5048820;27;20731;-67
2023/07/21 08:16:31;;;;;;;0.55;0.55;;;;;;;37.25;36.66;99156.03;5092729;27;20292;-67
2023/07/21 08:19:00;;;;;;;0.90;0.90;;;;;;;37.25;36.12;99150.69;5048392;27;20212;-67
2023/07/21 08:21:27;;;;;;;0.63;0.63;;;;;;;37.24;35.32;99155.22;5075389;27;20206;-67
2023/07/21 08:23:54;;;;;;;0.73;0.60;;;;;;;37.01;35.53;99155.06;5122894;27;20301;-67
2023/07/21 08:26:22;;;;;;;0.80;0.70;;;;;;;37.09;35.32;99152.13;5048086;27;20209;-67
2023/07/21 08:28:52;;;;;;;0.77;0.77;;;;;;;37.00;35.57;99150.75;5093299;27;20201;-66
2023/07/21 08:31:19;;;;;;;0.80;0.80;;;;;;;36.64;34.48;99156.03;5048308;27;20197;-65
2023/07/21 08:33:46;;;;;;;0.80;0.80;;;;;;;36.69;35.24;99157.00;5084429;27;20213;-67
2023/07/21 08:36:14;;;;;;;0.63;0.47;;;;;;;36.79;35.36;99140.47;5045575;27;20284;-68
2023/07/21 08:38:41;;;;;;;0.60;0.60;;;;;;;37.08;35.26;99139.78;5047333;27;20208;-67
2023/07/21 08:41:09;;;;;;;1.33;0.73;;;;;;;37.11;34.33;99150.03;5047972;27;20231;-66
2023/07/21 08:43:37;;;;;;;0.60;0.60;;;;;;;36.88;35.09;99149.81;5047789;27;20680;-65
2023/07/21 08:46:08;;;;;;;1.13;0.70;;;;;;;36.69;33.92;99150.84;5073906;27;20212;-66
2023/07/21 08:48:35;;;;;;;0.50;0.50;;;;;;;36.64;34.55;99148.81;5120357;27;20204;-66
2023/07/21 08:51:03;;;;;;;1.02;0.40;;;;;;;36.49;35.34;99150.16;5048169;27;20208;-66
2023/07/21 08:53:32;;;;;;;0.75;0.63;;;;;;;36.25;35.59;99147.28;5048168;27;20614;-66
2023/07/21 08:56:00;;;;;;;0.43;0.43;;;;;;;36.50;35.75;99151.81;5047968;27;20207;-66
2023/07/21 08:58:28;;;;;;;0.52;0.52;;;;;;;36.61;34.70;99143.13;5112465;27;20208;-67
2023/07/21 09:00:57;;;;;;;0.47;0.47;;;;;;;36.81;35.70;99149.88;5047848;27;20293;-68
2023/07/21 09:03:25;;;;;;;3.33;0.63;;;;;;;36.85;35.02;99144.91;5047802;27;20744;-66
2023/07/21 09:05:54;;;;;;;0.50;0.50;;;;;;;36.85;35.62;99150.28;5048024;27;20662;-67
2023/07/21 09:08:22;;;;;;;0.68;0.68;;;;;;;36.72;34.40;99151.22;5050361;27;20664;-65
2023/07/21 09:10:50;;;;;;;0.60;0.55;;;;;;;36.91;35.66;99144.03;5047760;27;20653;-66
2023/07/21 09:13:19;;;;;;;0.40;0.40;;;;;;;36.85;33.76;99147.59;5048296;27;20201;-66
2023/07/21 09:29:25;;;;;;;0.60;0.60;;;;;;;37.52;32.94;99137.81;5128519;27;20552;-68
2023/07/21 09:31:54;;;;;;;1.30;1.25;;;;;;;37.16;33.01;99147.47;5128933;27;20215;-67
2023/07/21 09:34:21;;;;;;;0.80;0.80;;;;;;;36.89;33.89;99134.59;5128352;27;20210;-66
2023/07/21 09:36:48;;;;;;;0.65;0.65;;;;;;;37.03;34.14;99131.59;5128648;28;20207;-65
2023/07/21 09:39:16;;;;;;;0.60;0.60;;;;;;;36.96;33.57;99138.03;5126094;28;20202;-66
2023/07/21 09:41:45;;;;;;;1.10;0.90;;;;;;;37.06;33.11;99133.81;5128245;28;20288;-65
2023/07/21 09:44:13;;;;;;;0.50;0.50;;;;;;;37.27;33.98;99136.06;5128437;27;20209;-64
2023/07/21 09:46:42;;;;;;;0.82;0.70;;;;;;;37.25;33.34;99132.78;5124595;28;20630;-65
2023/07/21 09:49:09;;;;;;;0.70;0.70;;;;;;;37.24;33.78;99124.97;5128043;27;20213;-65
2023/07/21 09:51:38;;;;;;;0.50;0.50;;;;;;;37.30;34.02;99116.88;5128173;27;20262;-66
2023/07/21 09:54:08;;;;;;;0.40;0.40;;;;;;;37.18;31.39;99126.69;5128039;27;20716;-65
2023/07/21 09:56:41;;;;;;;1.98;0.60;;;;;;;37.24;33.32;99119.63;5125829;28;20679;-65
2023/07/21 09:59:11;;;;;;;0.45;0.45;;;;;;;37.18;34.91;99121.34;5128329;28;20677;-65
2023/07/21 10:01:38;;;;;;;0.50;0.50;;;;;;;37.09;34.82;99112.00;5128538;27;20190;-63
2023/07/21 10:04:08;;;;;;;0.60;0.60;;;;;;;36.82;34.97;99119.47;5128240;27;20283;-65
2023/07/21 10:06:36;;;;;;;0.63;0.63;;;;;;;36.57;35.16;99131.25;5128409;27;20683;-64
2023/07/21 10:09:04;;;;;;;0.57;0.57;;;;;;;36.64;35.55;99126.66;5128495;27;20202;-64
2023/07/21 10:11:31;;;;;;;0.60;0.60;;;;;;;36.64;35.01;99115.97;5128286;27;20198;-65
2023/07/21 10:13:57;;;;;;;0.60;0.60;;;;;;;36.65;34.81;99117.59;5128414;27;20206;-64
2023/07/21 10:16:24;;;;;;;1.95;0.65;;;;;;;36.47;35.15;99114.84;5128110;27;20198;-64
2023/07/21 10:19:08;;;;;;;2.00;0.60;;;;;;;36.30;34.48;99115.41;5127380;27;20275;-64
2023/07/21 10:21:51;;;;;;;1.35;0.70;;;;;;;36.33;35.04;99108.81;5127099;28;20262;-65
2023/07/21 10:24:24;;;;;;;1.00;0.50;;;;;;;36.19;34.21;99105.44;5127320;28;20190;-65
2023/07/21 10:26:56;;;;;;;1.40;0.60;;;;;;;36.31;34.35;99101.03;5124095;28;20297;-66
2023/07/21 10:29:22;;;;;;;0.47;0.47;;;;;;;36.36;34.51;99096.88;5119172;28;20234;-65
2023/07/21 10:31:54;;;;;;;0.57;0.57;;;;;;;36.25;34.01;99106.44;5114186;28;20218;-65
2023/07/21 10:34:26;;;;;;;0.60;0.60;;;;;;;36.29;34.89;99108.44;5113850;28;20627;-65
2023/07/21 10:36:58;;;;;;;0.50;0.50;;;;;;;36.56;34.39;99094.88;5114037;28;20290;-65
2023/07/21 10:39:27;;;;;;;0.50;0.50;;;;;;;36.57;33.46;99088.50;5113988;28;20205;-64
2023/07/21 10:41:55;;;;;;;0.50;0.50;;;;;;;36.48;33.56;99089.78;5113533;28;20194;-65
2023/07/21 10:44:23;;;;;;;0.43;0.43;;;;;;;36.32;33.50;99104.50;5113732;28;20207;-65
2023/07/21 10:46:51;;;;;;;1.00;0.60;;;;;;;36.45;34.92;99111.59;5113870;28;20195;-65
2023/07/21 10:49:19;;;;;;;0.60;0.60;;;;;;;36.67;34.81;99103.00;5113942;28;20686;-65
2023/07/21 10:51:49;;;;;;;0.70;0.70;;;;;;;36.75;34.63;99091.19;5113372;28;20260;-65
2023/07/21 10:54:17;;;;;;;0.60;0.60;;;;;;;36.66;33.48;99076.47;5113658;28;20293;-65
2023/07/21 10:56:45;;;;;;;0.60;0.60;;;;;;;36.64;34.18;99084.69;5113448;28;20203;-65
2023/07/21 10:59:13;;;;;;;0.43;0.43;;;;;;;36.63;33.35;99087.63;5113750;28;20275;-66
2023/07/21 11:01:41;;;;;;;1.17;0.70;;;;;;;36.53;33.71;99097.94;5112885;28;20202;-65
2023/07/21 11:04:08;;;;;;;0.98;0.93;;;;;;;36.59;35.49;99079.22;5113834;28;20194;-66
2023/07/21 11:06:39;;;;;;;0.75;0.60;;;;;;;36.59;33.17;99073.88;5113480;28;20222;-65
2023/07/21 11:09:11;;;;;;;0.60;0.60;;;;;;;36.71;33.49;99073.94;5113587;28;20195;-64
2023/07/21 11:11:39;;;;;;;0.60;0.60;;;;;;;36.57;33.77;99075.16;5113330;28;20214;-65
2023/07/21 11:14:09;;;;;;;1.63;0.68;;;;;;;36.58;33.38;99074.09;5112954;28;20190;-65
2023/07/21 11:16:42;;;;;;;1.95;0.82;;;;;;;36.55;33.48;99070.00;5113137;28;20229;-66
2023/07/21 11:19:08;;;;;;;0.98;0.60;;;;;;;36.71;33.41;99061.41;5113270;28;20210;-65
2023/07/21 11:21:36;;;;;;;0.43;0.43;;;;;;;36.58;33.09;99050.88;5112592;28;20665;-65
2023/07/21 11:24:03;;;;;;;1.20;0.50;;;;;;;36.59;34.09;99049.03;5113258;28;20206;-65
2023/07/21 11:26:31;;;;;;;1.38;0.70;;;;;;;36.50;33.17;99061.81;5113376;28;20658;-65
2023/07/21 11:29:00;;;;;;;3.33;0.45;;;;;;;36.43;33.55;99054.91;5112881;28;20766;-66
2023/07/21 11:31:32;;;;;;;0.60;0.50;;;;;;;36.38;33.96;99046.75;5112873;28;20190;-65
2023/07/21 11:33:59;;;;;;;1.42;0.68;;;;;;;36.38;34.45;99052.09;5112912;28;20202;-65
2023/07/21 11:36:29;;;;;;;0.63;0.63;;;;;;;36.54;33.18;99056.91;5113041;28;20206;-65
2023/07/21 11:38:58;;;;;;;0.85;0.60;;;;;;;36.31;33.53;99046.81;5112786;28;20237;-65
2023/07/21 11:41:36;;;;;;;1.23;0.80;;;;;;;36.43;33.72;99038.88;5110745;28;20293;-65
2023/07/21 11:44:06;;;;;;;0.60;0.60;;;;;;;36.64;33.92;99058.00;5112609;28;20237;-65
2023/07/21 11:46:33;;;;;;;0.60;0.60;;;;;;;36.63;33.63;99048.38;5104907;28;20199;-65
2023/07/21 11:49:00;;;;;;;0.60;0.60;;;;;;;36.53;32.09;99055.22;5112495;28;20199;-65
2023/07/21 11:51:27;;;;;;;0.65;0.65;;;;;;;36.57;32.37;99041.25;5112368;28;20244;-64